Ankergracht — PCQL — position and weather

sailwx.info

Track history (hours):
 
Tides and Currents Weather Stations Pressure Air Temp Water Temp Dewpoint Dewpoint Depression Visibility Wind Speed Wind Dir Waves Ship Positions

Ankergracht

Last reported at 2017-Dec-16 22:01 UTC. Time now 2017-Dec-17 00:45 UTC.
Position N 52°03' E 003°34'.

Length 130 m; beam 19 m; draft 9 m.

Type: Ship. MMSI: 244110390.

Date/timePositionNaut miles runAvg speedWind from/ knotsBaromVisibWave heightAir tempDewpointWater temp
2017-Dec-16 22:01N 52°03' E 003°34'014.0
2017-Dec-16 22:00N 52°03' E 003°35'714.2
2017-Dec-16 21:31N 52°02' E 003°46'715.0
2017-Dec-16 21:00N 52°01' E 003°58'815.5
2017-Dec-16 20:30N 51°58' E 004°09'815.4
2017-Dec-16 20:00N 51°53' E 004°20'4 7.7
2017-Dec-16 19:30N 51°51' E 004°24'1 2.4
2017-Dec-16 19:00N 51°50' E 004°26'3 6.4
2017-Dec-16 18:30N 51°50' E 004°31'4 7.5
2017-Dec-16 18:00N 51°48' E 004°37'5 9.1
2017-Dec-16 17:30N 51°44' E 004°38'3 6.0
2017-Dec-16 17:00N 51°41' E 004°36'0 0.0
2017-Dec-16 16:28N 51°41' E 004°36'0 0.0
2017-Dec-16 16:00N 51°41' E 004°36'0 0.0
2017-Dec-16 15:30N 51°41' E 004°36'0 0.0
2017-Dec-16 14:58N 51°41' E 004°36'0 0.0
2017-Dec-16 14:30N 51°41' E 004°36'0 0.0
2017-Dec-16 13:58N 51°41' E 004°36'0 0.0
2017-Dec-16 13:30N 51°41' E 004°36'0 0.0
2017-Dec-16 12:54N 51°41' E 004°36'0 0.0
2017-Dec-16 12:30N 51°41' E 004°36'0 0.0
2017-Dec-16 12:00N 51°41' E 004°36'0 0.0
2017-Dec-16 11:30N 51°41' E 004°36'0 0.0
2017-Dec-16 11:00N 51°41' E 004°36'0 0.0
2017-Dec-16 10:30N 51°41' E 004°36'0 0.0
2017-Dec-16 10:00N 51°41' E 004°36'0 0.0
2017-Dec-16 09:28N 51°41' E 004°36'0 0.0
2017-Dec-16 09:00N 51°41' E 004°36'0 0.0
2017-Dec-16 08:28N 51°41' E 004°36'0 0.0
2017-Dec-16 08:00N 51°41' E 004°36'0 0.0
2017-Dec-16 07:30N 51°41' E 004°36'0 0.0
2017-Dec-16 07:00N 51°41' E 004°36'0 0.0
2017-Dec-16 06:30N 51°41' E 004°36'0 0.0
2017-Dec-16 05:58N 51°41' E 004°36'0 0.0
2017-Dec-16 05:28N 51°41' E 004°36'0 0.0
2017-Dec-16 05:00N 51°41' E 004°36'0 0.0
2017-Dec-16 04:30N 51°41' E 004°36'0 0.0
2017-Dec-16 04:00N 51°41' E 004°36'0 0.0
2017-Dec-16 03:30N 51°41' E 004°36'0 0.0
2017-Dec-16 03:00N 51°41' E 004°36'0 0.0
2017-Dec-16 02:30N 51°41' E 004°36'0 0.0
2017-Dec-16 02:00N 51°41' E 004°36'0 0.0
2017-Dec-16 01:28N 51°41' E 004°36'0 0.0
2017-Dec-16 00:58N 51°41' E 004°36'0 0.0
2017-Dec-16 00:28N 51°41' E 004°36'0 0.0
2017-Dec-15 23:55N 51°41' E 004°36'0 0.0
2017-Dec-15 23:28N 51°41' E 004°36'0 0.0
2017-Dec-15 22:52N 51°41' E 004°36'0 0.0
2017-Dec-15 22:28N 51°41' E 004°36'0 0.0
2017-Dec-15 21:58N 51°41' E 004°36'0 0.0
2017-Dec-15 21:25N 51°41' E 004°36'0 0.0
2017-Dec-15 20:58N 51°41' E 004°36'0 0.0
2017-Dec-15 20:28N 51°41' E 004°36'0 0.0
2017-Dec-15 19:58N 51°41' E 004°36'0 0.0
2017-Dec-15 19:22N 51°41' E 004°36'0 0.0
2017-Dec-15 18:46N 51°41' E 004°36'0 0.0
2017-Dec-15 18:28N 51°41' E 004°36'0 0.0
2017-Dec-15 17:58N 51°41' E 004°36'0 0.0
2017-Dec-15 17:28N 51°41' E 004°36'0 0.0
2017-Dec-15 16:58N 51°41' E 004°36'0 0.0
2017-Dec-15 16:28N 51°41' E 004°36'0 0.0
2017-Dec-15 15:55N 51°41' E 004°36'0 0.0
2017-Dec-15 15:28N 51°41' E 004°36'0 0.0
2017-Dec-15 14:58N 51°41' E 004°36'0 0.0
2017-Dec-15 14:28N 51°41' E 004°36'0 0.0
2017-Dec-15 13:55N 51°41' E 004°36'0 0.0
2017-Dec-15 13:28N 51°41' E 004°36'0 0.0
2017-Dec-15 12:58N 51°41' E 004°36'0 0.0
2017-Dec-15 12:28N 51°41' E 004°36'0 0.0
2017-Dec-15 11:58N 51°41' E 004°36'0 0.0
2017-Dec-15 11:22N 51°41' E 004°36'0 0.0
2017-Dec-15 10:52N 51°41' E 004°36'0 0.0
2017-Dec-15 10:28N 51°41' E 004°36'0 0.1
2017-Dec-15 10:00N 51°41' E 004°36'3 6.6
2017-Dec-15 09:30N 51°44' E 004°38'4 8.9
2017-Dec-15 09:00N 51°48' E 004°36'4 8.8
2017-Dec-15 08:30N 51°50' E 004°30'510.5
2017-Dec-15 08:00N 51°51' E 004°21'4 8.6
2017-Dec-15 07:30N 51°54' E 004°16'612.4
2017-Dec-15 07:00N 51°58' E 004°09'510.2
2017-Dec-15 06:30N 51°60' E 004°01'815.2
2017-Dec-15 06:00N 51°58' E 003°49'1613.8
2017-Dec-15 04:51N 51°54' E 003°24'5113.2
2017-Dec-15 01:00N 51°29' E 002°13'713.8
2017-Dec-15 00:31N 51°25' E 002°04'52 8.6
2017-Dec-14 18:28N 51°26' E 000°41'0 0.0
2017-Dec-14 17:58N 51°26' E 000°41'0 0.0
2017-Dec-14 17:25N 51°26' E 000°41'0 0.0
2017-Dec-14 16:58N 51°26' E 000°41'0 0.0
2017-Dec-14 16:28N 51°26' E 000°41'0 0.0
2017-Dec-14 15:58N 51°26' E 000°41'0 0.0
2017-Dec-14 14:58N 51°26' E 000°41'0 0.0
2017-Dec-14 14:28N 51°26' E 000°41'0 0.0
2017-Dec-14 13:42N 51°26' E 000°41'1 2.6
2017-Dec-14 13:30N 51°26' E 000°42'510.8
2017-Dec-14 13:00N 51°28' E 000°50'714.0
2017-Dec-14 12:30N 51°30' E 001°01'713.4
2017-Dec-14 11:57N 51°29' E 001°13'814.3
2017-Dec-14 11:25N 51°29' E 001°25'614.7
2017-Dec-14 11:01N 51°31' E 001°34'713.9
2017-Dec-14 10:30N 51°35' E 001°44'713.5
2017-Dec-14 10:00N 51°38' E 001°53'612.3
2017-Dec-14 09:30N 51°41' E 002°02'6310.5
2017-Dec-14 03:31N 52°04' E 003°37'110.9
2017-Dec-14 03:28N 52°04' E 003°38'510.7
2017-Dec-14 03:01N 52°04' E 003°46'611.5
2017-Dec-14 02:31N 52°03' E 003°55'714.9
2017-Dec-14 02:00N 51°59' E 004°06'713.9
2017-Dec-14 01:30N 51°55' E 004°15'5 9.1
2017-Dec-14 01:00N 51°52' E 004°20'4 8.8
2017-Dec-14 00:30N 51°50' E 004°27'4 8.6
2017-Dec-14 00:00N 51°49' E 004°34'4 7.2
2017-Dec-13 23:30N 51°46' E 004°38'4 8.4
2017-Dec-13 23:00N 51°42' E 004°37'1 2.7
2017-Dec-13 22:30N 51°41' E 004°36'0 0.0
2017-Dec-13 22:00N 51°41' E 004°36'0 0.0
2017-Dec-13 21:30N 51°41' E 004°36'0 0.0
2017-Dec-13 20:59N 51°41' E 004°36'0 0.0
2017-Dec-13 20:31N 51°41' E 004°36'0 0.0
2017-Dec-13 19:59N 51°41' E 004°36'0 0.0
2017-Dec-13 19:30N 51°41' E 004°36'0 0.0
2017-Dec-13 19:00N 51°41' E 004°36'0 0.0
2017-Dec-13 18:30N 51°41' E 004°36'0 0.0
2017-Dec-13 18:00N 51°41' E 004°36'0 0.0
2017-Dec-13 17:30N 51°41' E 004°36'0 0.0
2017-Dec-13 16:54N 51°41' E 004°36'0 0.0
2017-Dec-13 16:30N 51°41' E 004°36'0 0.0
2017-Dec-13 16:00N 51°41' E 004°36'0 0.0
2017-Dec-13 15:31N 51°41' E 004°36'0 0.0
2017-Dec-13 15:00N 51°41' E 004°36'0 0.0
2017-Dec-13 14:30N 51°41' E 004°36'0 0.0
2017-Dec-13 13:59N 51°41' E 004°36'0 0.0
2017-Dec-13 13:29N 51°41' E 004°36'0 0.0
2017-Dec-13 12:59N 51°41' E 004°36'0 0.0
2017-Dec-13 12:30N 51°41' E 004°36'0 0.0
2017-Dec-13 12:00N 51°41' E 004°36'0 0.0
2017-Dec-13 11:30N 51°41' E 004°36'0 0.0
2017-Dec-13 10:59N 51°41' E 004°36'0 0.0
2017-Dec-13 10:30N 51°41' E 004°36'0 0.0
2017-Dec-13 10:00N 51°41' E 004°36'3 5.1
2017-Dec-13 09:31N 51°43' E 004°37'4 8.7
2017-Dec-13 09:01N 51°48' E 004°37'4 8.4
2017-Dec-13 08:31N 51°50' E 004°32'510.0
2017-Dec-13 08:01N 51°51' E 004°23'3 6.5
2017-Dec-13 07:31N 51°53' E 004°20'5 9.2
2017-Dec-13 07:00N 51°55' E 004°14'713.5
2017-Dec-13 06:30N 51°59' E 004°04'714.3
2017-Dec-13 06:00N 51°59' E 003°53'815.3
2017-Dec-13 05:30N 51°58' E 003°41'914.2
2017-Dec-13 04:51N 51°55' E 003°26'514.1
2017-Dec-13 04:28N 51°54' E 003°18'4114.0
2017-Dec-13 01:33N 51°33' E 002°20'215.1
2017-Dec-13 01:25N 51°32' E 002°17'614.7
2017-Dec-13 01:00N 51°28' E 002°11'714.9
2017-Dec-13 00:30N 51°24' E 002°01'714.5
2017-Dec-13 00:00N 51°26' E 001°50'714.8
2017-Dec-12 23:30N 51°29' E 001°39'816.1
2017-Dec-12 23:00N 51°28' E 001°26'1017.4
2017-Dec-12 22:27N 51°29' E 001°10'1616.9
2017-Dec-12 21:29N 51°27' E 000°44'2 4.7
2017-Dec-12 21:00N 51°26' E 000°41'0 0.0
2017-Dec-12 20:30N 51°26' E 000°41'0 0.0
2017-Dec-12 20:00N 51°26' E 000°41'0 0.0
2017-Dec-12 19:30N 51°26' E 000°41'0 0.0
2017-Dec-12 19:00N 51°26' E 000°41'0 0.0
2017-Dec-12 18:27N 51°26' E 000°41'0 0.0
2017-Dec-12 18:00N 51°26' E 000°41'0 0.0
2017-Dec-12 17:30N 51°26' E 000°41'0 0.0
2017-Dec-12 17:00N 51°26' E 000°41'0 0.0
2017-Dec-12 16:27N 51°26' E 000°41'0 0.0
2017-Dec-12 16:00N 51°26' E 000°41'0 0.0
2017-Dec-12 15:30N 51°26' E 000°41'0 0.0
2017-Dec-12 14:57N 51°26' E 000°41'0 0.1
2017-Dec-12 14:30N 51°26' E 000°41'0 0.0
2017-Dec-12 14:00N 51°26' E 000°41'0 0.0
2017-Dec-12 13:21N 51°26' E 000°41'0 0.0
2017-Dec-12 13:00N 51°26' E 000°41'0 0.0
2017-Dec-12 12:30N 51°26' E 000°41'0 0.0
2017-Dec-12 12:00N 51°26' E 000°41'0 0.0
2017-Dec-12 11:30N 51°26' E 000°41'0 0.0
2017-Dec-12 11:00N 51°26' E 000°41'4 7.2
2017-Dec-12 10:30N 51°28' E 000°46'612.7
2017-Dec-12 10:00N 51°29' E 000°56'712.8
2017-Dec-12 09:29N 51°30' E 001°07'613.3
2017-Dec-12 09:00N 51°29' E 001°17'713.6
2017-Dec-12 08:31N 51°29' E 001°28'712.9
2017-Dec-12 08:00N 51°32' E 001°38'713.0
2017-Dec-12 07:30N 51°35' E 001°47'612.8
2017-Dec-12 07:00N 51°39' E 001°55'712.9
2017-Dec-12 06:30N 51°42' E 002°04'4513.2
2017-Dec-12 03:05N 52°02' E 003°09'113.2
2017-Dec-12 02:59N 52°02' E 003°12'613.7
2017-Dec-12 02:30N 52°02' E 003°22'713.4
2017-Dec-12 02:00N 52°03' E 003°33'613.1
2017-Dec-12 01:30N 52°03' E 003°44'713.4
2017-Dec-12 01:00N 52°02' E 003°54'713.8
2017-Dec-12 00:30N 51°59' E 004°04'714.2
2017-Dec-12 00:00N 51°55' E 004°14'510.6
2017-Dec-11 23:30N 51°52' E 004°20'4 8.8
2017-Dec-11 23:00N 51°50' E 004°27'4 8.6
2017-Dec-11 22:30N 51°49' E 004°34'4 7.4
2017-Dec-11 22:00N 51°46' E 004°38'4 8.2
2017-Dec-11 21:30N 51°42' E 004°36'1 2.5
2017-Dec-11 21:00N 51°41' E 004°36'0 0.0
2017-Dec-11 20:30N 51°41' E 004°36'0 0.0
2017-Dec-11 20:00N 51°41' E 004°36'0 0.0
2017-Dec-11 19:27N 51°41' E 004°36'0 0.0
2017-Dec-11 19:00N 51°41' E 004°36'0 0.0
2017-Dec-11 18:30N 51°41' E 004°36'0 0.0
2017-Dec-11 18:00N 51°41' E 004°36'0 0.0
2017-Dec-11 17:30N 51°41' E 004°36'0 0.0
2017-Dec-11 17:00N 51°41' E 004°36'0 0.0
2017-Dec-11 16:30N 51°41' E 004°36'0 0.0
2017-Dec-11 15:51N 51°41' E 004°36'0 0.0
2017-Dec-11 15:24N 51°41' E 004°36'0 0.0
2017-Dec-11 15:00N 51°41' E 004°36'0 0.0
2017-Dec-11 14:21N 51°41' E 004°36'0 0.0
2017-Dec-11 13:57N 51°41' E 004°36'0 0.0
2017-Dec-11 13:30N 51°41' E 004°36'0 0.0
2017-Dec-11 12:54N 51°41' E 004°36'0 0.0
2017-Dec-11 12:30N 51°41' E 004°36'0 0.0
2017-Dec-11 12:00N 51°41' E 004°36'0 0.0
2017-Dec-11 11:30N 51°41' E 004°36'0 0.0
2017-Dec-11 11:00N 51°41' E 004°36'0 0.0
2017-Dec-11 10:27N 51°41' E 004°36'0 0.0
2017-Dec-11 10:00N 51°41' E 004°36'0 0.0
2017-Dec-11 09:30N 51°41' E 004°36'0 0.0
2017-Dec-11 09:00N 51°41' E 004°36'0 0.0
2017-Dec-11 08:30N 51°41' E 004°36'0 0.0
2017-Dec-11 08:00N 51°41' E 004°36'0 0.0
2017-Dec-11 07:30N 51°41' E 004°36'0 0.0
2017-Dec-11 07:00N 51°41' E 004°36'0 0.0
2017-Dec-11 06:30N 51°41' E 004°36'0 0.0
2017-Dec-11 06:00N 51°41' E 004°36'0 0.2
2017-Dec-11 05:31N 51°41' E 004°36'4 7.4
2017-Dec-11 05:01N 51°45' E 004°38'4 8.1
2017-Dec-11 04:30N 51°48' E 004°36'4 8.7
2017-Dec-11 04:01N 51°50' E 004°29'5 9.1
2017-Dec-11 03:31N 51°51' E 004°22'5 9.3
2017-Dec-11 03:01N 51°54' E 004°17'611.9
2017-Dec-11 02:31N 51°58' E 004°09'612.7
2017-Dec-11 02:00N 51°60' E 003°59'714.0
2017-Dec-11 01:30N 51°58' E 003°48'814.4
2017-Dec-11 00:58N 51°57' E 003°36'612.2
2017-Dec-11 00:28N 51°55' E 003°26'612.4
2017-Dec-11 00:00N 51°53' E 003°17'3912.9
2017-Dec-10 20:57N 51°35' E 002°22'614.0
2017-Dec-10 20:30N 51°30' E 002°14'714.4
2017-Dec-10 20:00N 51°25' E 002°06'713.3
2017-Dec-10 19:30N 51°25' E 001°56'714.5
2017-Dec-10 19:00N 51°28' E 001°45'714.2
2017-Dec-10 18:30N 51°29' E 001°33'714.7
2017-Dec-10 18:00N 51°28' E 001°22'6 0.4
2017-Dec-10 04:17N 51°29' E 001°13'310.9
2017-Dec-10 04:00N 51°29' E 001°18'611.1
2017-Dec-10 03:30N 51°29' E 001°27'613.0
2017-Dec-10 03:00N 51°31' E 001°36'713.7
2017-Dec-10 02:30N 51°35' E 001°46'713.6
2017-Dec-10 02:00N 51°38' E 001°55'713.7
2017-Dec-10 01:31N 51°42' E 002°04'6013.2
2017-Dec-09 20:59N 52°04' E 003°34'612.6
2017-Dec-09 20:30N 52°04' E 003°44'612.1
2017-Dec-09 20:00N 52°03' E 003°54'612.3
2017-Dec-09 19:30N 51°60' E 004°02'713.0
2017-Dec-09 19:00N 51°57' E 004°12'611.8
2017-Dec-09 18:30N 51°53' E 004°19'5 9.2
2017-Dec-09 18:01N 51°50' E 004°25'510.5
2017-Dec-09 17:30N 51°49' E 004°34'5 9.0
2017-Dec-09 17:00N 51°45' E 004°38'4 8.0
2017-Dec-09 16:30N 51°42' E 004°35'1 1.3
2017-Dec-09 16:00N 51°41' E 004°36'0 0.0
2017-Dec-09 15:30N 51°41' E 004°36'0 0.0
2017-Dec-09 14:57N 51°41' E 004°36'0 0.0
2017-Dec-09 14:27N 51°41' E 004°36'0 0.0
2017-Dec-09 14:00N 51°41' E 004°36'0 0.0
2017-Dec-09 13:30N 51°41' E 004°36'0 0.0
2017-Dec-09 12:57N 51°41' E 004°36'0 0.0
2017-Dec-09 12:30N 51°41' E 004°36'0 0.0
2017-Dec-09 12:00N 51°41' E 004°36'0 0.0
2017-Dec-09 11:30N 51°41' E 004°36'0 0.0
2017-Dec-09 11:00N 51°41' E 004°36'0 0.0
2017-Dec-09 10:30N 51°41' E 004°36'0 0.0
2017-Dec-09 10:00N 51°41' E 004°36'0 0.0
2017-Dec-09 09:30N 51°41' E 004°36'0 0.0
2017-Dec-09 08:54N 51°41' E 004°36'0 0.0
2017-Dec-09 08:30N 51°41' E 004°36'0 0.0
2017-Dec-09 08:00N 51°41' E 004°36'0 0.0
2017-Dec-09 07:30N 51°41' E 004°36'0 0.0
2017-Dec-09 07:00N 51°41' E 004°36'0 0.4
2017-Dec-09 06:29N 51°41' E 004°36'0 0.0
2017-Dec-09 05:59N 51°41' E 004°36'0 0.0
2017-Dec-09 05:29N 51°41' E 004°36'0 0.0
2017-Dec-09 04:59N 51°41' E 004°36'0 0.0
2017-Dec-09 04:29N 51°41' E 004°36'0 0.0
2017-Dec-09 03:59N 51°41' E 004°36'0 0.0
2017-Dec-09 03:29N 51°41' E 004°36'0 0.0
2017-Dec-09 02:56N 51°41' E 004°36'0 0.0
2017-Dec-09 02:26N 51°41' E 004°36'0 0.0
2017-Dec-09 01:59N 51°41' E 004°36'0 0.0
2017-Dec-09 01:29N 51°41' E 004°36'0 0.0
2017-Dec-09 00:59N 51°41' E 004°36'0 0.0
2017-Dec-09 00:29N 51°41' E 004°36'0 0.0
2017-Dec-08 23:59N 51°41' E 004°36'0 0.0
2017-Dec-08 23:26N 51°41' E 004°36'0 0.0
2017-Dec-08 22:59N 51°41' E 004°36'0 0.0
2017-Dec-08 22:29N 51°41' E 004°36'0 0.0
2017-Dec-08 21:59N 51°41' E 004°36'0 0.0
2017-Dec-08 21:29N 51°41' E 004°36'0 0.0
2017-Dec-08 20:56N 51°41' E 004°36'0 0.0
2017-Dec-08 20:29N 51°41' E 004°36'0 0.0
2017-Dec-08 19:59N 51°41' E 004°36'0 0.0
2017-Dec-08 19:29N 51°41' E 004°36'0 0.0
2017-Dec-08 18:59N 51°41' E 004°36'0 0.0
2017-Dec-08 18:29N 51°41' E 004°36'0 0.0
2017-Dec-08 17:59N 51°41' E 004°36'0 0.0
2017-Dec-08 17:29N 51°41' E 004°36'0 0.0
2017-Dec-08 16:53N 51°41' E 004°36'0 0.0
2017-Dec-08 16:29N 51°41' E 004°36'0 0.2
2017-Dec-08 15:59N 51°41' E 004°36'0 0.0
2017-Dec-08 15:29N 51°41' E 004°36'0 0.0
2017-Dec-08 14:59N 51°41' E 004°36'0 0.0
2017-Dec-08 14:23N 51°41' E 004°36'0 0.0
2017-Dec-08 13:59N 51°41' E 004°36'0 0.0
2017-Dec-08 13:29N 51°41' E 004°36'0 0.0
2017-Dec-08 12:56N 51°41' E 004°36'0 0.0
2017-Dec-08 12:29N 51°41' E 004°36'0 0.0
2017-Dec-08 11:59N 51°41' E 004°36'0 0.0
2017-Dec-08 11:29N 51°41' E 004°36'0 0.0
2017-Dec-08 10:59N 51°41' E 004°36'1 2.1
2017-Dec-08 10:31N 51°42' E 004°36'5 9.7
2017-Dec-08 10:00N 51°47' E 004°38'5 9.1
2017-Dec-08 09:31N 51°50' E 004°33'510.8
2017-Dec-08 09:00N 51°51' E 004°24'5 9.9
2017-Dec-08 08:30N 51°54' E 004°18'714.2
2017-Dec-08 08:00N 51°58' E 004°09'612.8
2017-Dec-08 07:31N 51°60' E 003°59'917.8
2017-Dec-08 07:00N 51°58' E 003°44'4617.0
2017-Dec-08 04:16N 51°42' E 002°34'617.8
2017-Dec-08 03:56N 51°39' E 002°26'916.9
2017-Dec-08 03:24N 51°32' E 002°16'716.7
2017-Dec-08 03:00N 51°27' E 002°10'816.5
2017-Dec-08 02:30N 51°24' E 001°58'917.1
2017-Dec-08 02:00N 51°27' E 001°45'816.0
2017-Dec-08 01:30N 51°29' E 001°32'815.5
2017-Dec-08 01:00N 51°29' E 001°20'815.3
2017-Dec-08 00:30N 51°29' E 001°08'815.0
2017-Dec-08 00:00N 51°29' E 000°55'714.2
2017-Dec-07 23:31N 51°27' E 000°45'2 4.8
2017-Dec-07 23:00N 51°26' E 000°41'0 0.0
2017-Dec-07 22:29N 51°26' E 000°41'0 0.0
2017-Dec-07 21:59N 51°26' E 000°41'0 0.0
2017-Dec-07 21:29N 51°26' E 000°41'0 0.0
2017-Dec-07 20:59N 51°26' E 000°41'0 0.0
2017-Dec-07 20:19N 51°26' E 000°41'0 0.0
2017-Dec-07 19:55N 51°26' E 000°41'0 0.0
2017-Dec-07 19:29N 51°26' E 000°41'0 0.0
2017-Dec-07 18:55N 51°26' E 000°41'0 0.0
2017-Dec-07 18:25N 51°26' E 000°41'0 0.0
2017-Dec-07 17:55N 51°26' E 000°41'0 0.0
2017-Dec-07 17:29N 51°26' E 000°41'0 0.0
2017-Dec-07 16:59N 51°26' E 000°41'0 0.0
2017-Dec-07 16:29N 51°26' E 000°41'0 0.0
2017-Dec-07 15:50N 51°26' E 000°41'0 0.0
2017-Dec-07 15:29N 51°26' E 000°41'0 0.0
2017-Dec-07 14:59N 51°26' E 000°41'0 0.0
2017-Dec-07 14:29N 51°26' E 000°41'0 0.0
2017-Dec-07 13:59N 51°26' E 000°41'0 0.0
2017-Dec-07 13:29N 51°26' E 000°41'1 3.1
2017-Dec-07 13:01N 51°26' E 000°43'816.0
2017-Dec-07 12:30N 51°29' E 000°55'917.6
2017-Dec-07 12:00N 51°29' E 001°09'915.1
2017-Dec-07 11:23N 51°29' E 001°24'514.6
2017-Dec-07 11:00N 51°30' E 001°33'714.7
2017-Dec-07 10:31N 51°34' E 001°43'713.4
2017-Dec-07 10:00N 51°38' E 001°52'612.6
2017-Dec-07 09:30N 51°42' E 001°60'63 8.8
2017-Dec-07 02:22N 52°04' E 003°35'410.6
2017-Dec-07 02:00N 52°03' E 003°41'611.6
2017-Dec-07 01:30N 52°03' E 003°50'713.4
2017-Dec-07 01:00N 52°00' E 004°00'714.9
2017-Dec-07 00:31N 51°57' E 004°11'713.6
2017-Dec-07 00:01N 51°52' E 004°20'5 9.9
2017-Dec-06 23:31N 51°50' E 004°27'5 9.7
2017-Dec-06 23:00N 51°49' E 004°34'4 8.4
2017-Dec-06 22:31N 51°45' E 004°38'  
Track history (hours):
 
Tides and Currents Weather Stations Pressure Air Temp Water Temp Dewpoint Dewpoint Depression Visibility Wind Speed Wind Dir Waves Ship Positions

Ankergracht

Last reported at 2017-Dec-16 22:01 UTC. Time now 2017-Dec-17 00:45 UTC.
Position N 52°03' E 003°34'.

Length 130 m; beam 19 m; draft 9 m.

Type: Ship. MMSI: 244110390.

Date/timePositionNaut miles runAvg speedWind from/ knotsBaromVisibWave heightAir tempDewpointWater temp
2017-Dec-16 22:01N 52°03' E 003°34'014.0
2017-Dec-16 22:00N 52°03' E 003°35'714.2
2017-Dec-16 21:31N 52°02' E 003°46'715.0
2017-Dec-16 21:00N 52°01' E 003°58'815.5
2017-Dec-16 20:30N 51°58' E 004°09'815.4
2017-Dec-16 20:00N 51°53' E 004°20'4 7.7
2017-Dec-16 19:30N 51°51' E 004°24'1 2.4
2017-Dec-16 19:00N 51°50' E 004°26'3 6.4
2017-Dec-16 18:30N 51°50' E 004°31'4 7.5
2017-Dec-16 18:00N 51°48' E 004°37'5 9.1
2017-Dec-16 17:30N 51°44' E 004°38'3 6.0
2017-Dec-16 17:00N 51°41' E 004°36'0 0.0
2017-Dec-16 16:28N 51°41' E 004°36'0 0.0
2017-Dec-16 16:00N 51°41' E 004°36'0 0.0
2017-Dec-16 15:30N 51°41' E 004°36'0 0.0
2017-Dec-16 14:58N 51°41' E 004°36'0 0.0
2017-Dec-16 14:30N 51°41' E 004°36'0 0.0
2017-Dec-16 13:58N 51°41' E 004°36'0 0.0
2017-Dec-16 13:30N 51°41' E 004°36'0 0.0
2017-Dec-16 12:54N 51°41' E 004°36'0 0.0
2017-Dec-16 12:30N 51°41' E 004°36'0 0.0
2017-Dec-16 12:00N 51°41' E 004°36'0 0.0
2017-Dec-16 11:30N 51°41' E 004°36'0 0.0
2017-Dec-16 11:00N 51°41' E 004°36'0 0.0
2017-Dec-16 10:30N 51°41' E 004°36'0 0.0
2017-Dec-16 10:00N 51°41' E 004°36'0 0.0
2017-Dec-16 09:28N 51°41' E 004°36'0 0.0
2017-Dec-16 09:00N 51°41' E 004°36'0 0.0
2017-Dec-16 08:28N 51°41' E 004°36'0 0.0
2017-Dec-16 08:00N 51°41' E 004°36'0 0.0
2017-Dec-16 07:30N 51°41' E 004°36'0 0.0
2017-Dec-16 07:00N 51°41' E 004°36'0 0.0
2017-Dec-16 06:30N 51°41' E 004°36'0 0.0
2017-Dec-16 05:58N 51°41' E 004°36'0 0.0
2017-Dec-16 05:28N 51°41' E 004°36'0 0.0
2017-Dec-16 05:00N 51°41' E 004°36'0 0.0
2017-Dec-16 04:30N 51°41' E 004°36'0 0.0
2017-Dec-16 04:00N 51°41' E 004°36'0 0.0
2017-Dec-16 03:30N 51°41' E 004°36'0 0.0
2017-Dec-16 03:00N 51°41' E 004°36'0 0.0
2017-Dec-16 02:30N 51°41' E 004°36'0 0.0
2017-Dec-16 02:00N 51°41' E 004°36'0 0.0
2017-Dec-16 01:28N 51°41' E 004°36'0 0.0
2017-Dec-16 00:58N 51°41' E 004°36'0 0.0
2017-Dec-16 00:28N 51°41' E 004°36'0 0.0
2017-Dec-15 23:55N 51°41' E 004°36'0 0.0
2017-Dec-15 23:28N 51°41' E 004°36'0 0.0
2017-Dec-15 22:52N 51°41' E 004°36'0 0.0
2017-Dec-15 22:28N 51°41' E 004°36'0 0.0
2017-Dec-15 21:58N 51°41' E 004°36'0 0.0
2017-Dec-15 21:25N 51°41' E 004°36'0 0.0
2017-Dec-15 20:58N 51°41' E 004°36'0 0.0
2017-Dec-15 20:28N 51°41' E 004°36'0 0.0
2017-Dec-15 19:58N 51°41' E 004°36'0 0.0
2017-Dec-15 19:22N 51°41' E 004°36'0 0.0
2017-Dec-15 18:46N 51°41' E 004°36'0 0.0
2017-Dec-15 18:28N 51°41' E 004°36'0 0.0
2017-Dec-15 17:58N 51°41' E 004°36'0 0.0
2017-Dec-15 17:28N 51°41' E 004°36'0 0.0
2017-Dec-15 16:58N 51°41' E 004°36'0 0.0
2017-Dec-15 16:28N 51°41' E 004°36'0 0.0
2017-Dec-15 15:55N 51°41' E 004°36'0 0.0
2017-Dec-15 15:28N 51°41' E 004°36'0 0.0
2017-Dec-15 14:58N 51°41' E 004°36'0 0.0
2017-Dec-15 14:28N 51°41' E 004°36'0 0.0
2017-Dec-15 13:55N 51°41' E 004°36'0 0.0
2017-Dec-15 13:28N 51°41' E 004°36'0 0.0
2017-Dec-15 12:58N 51°41' E 004°36'0 0.0
2017-Dec-15 12:28N 51°41' E 004°36'0 0.0
2017-Dec-15 11:58N 51°41' E 004°36'0 0.0
2017-Dec-15 11:22N 51°41' E 004°36'0 0.0
2017-Dec-15 10:52N 51°41' E 004°36'0 0.0
2017-Dec-15 10:28N 51°41' E 004°36'0 0.1
2017-Dec-15 10:00N 51°41' E 004°36'3 6.6
2017-Dec-15 09:30N 51°44' E 004°38'4 8.9
2017-Dec-15 09:00N 51°48' E 004°36'4 8.8
2017-Dec-15 08:30N 51°50' E 004°30'510.5
2017-Dec-15 08:00N 51°51' E 004°21'4 8.6
2017-Dec-15 07:30N 51°54' E 004°16'612.4
2017-Dec-15 07:00N 51°58' E 004°09'510.2
2017-Dec-15 06:30N 51°60' E 004°01'815.2
2017-Dec-15 06:00N 51°58' E 003°49'1613.8
2017-Dec-15 04:51N 51°54' E 003°24'5113.2
2017-Dec-15 01:00N 51°29' E 002°13'713.8
2017-Dec-15 00:31N 51°25' E 002°04'52 8.6
2017-Dec-14 18:28N 51°26' E 000°41'0 0.0
2017-Dec-14 17:58N 51°26' E 000°41'0 0.0
2017-Dec-14 17:25N 51°26' E 000°41'0 0.0
2017-Dec-14 16:58N 51°26' E 000°41'0 0.0
2017-Dec-14 16:28N 51°26' E 000°41'0 0.0
2017-Dec-14 15:58N 51°26' E 000°41'0 0.0
2017-Dec-14 14:58N 51°26' E 000°41'0 0.0
2017-Dec-14 14:28N 51°26' E 000°41'0 0.0
2017-Dec-14 13:42N 51°26' E 000°41'1 2.6
2017-Dec-14 13:30N 51°26' E 000°42'510.8
2017-Dec-14 13:00N 51°28' E 000°50'714.0
2017-Dec-14 12:30N 51°30' E 001°01'713.4
2017-Dec-14 11:57N 51°29' E 001°13'814.3
2017-Dec-14 11:25N 51°29' E 001°25'614.7
2017-Dec-14 11:01N 51°31' E 001°34'713.9
2017-Dec-14 10:30N 51°35' E 001°44'713.5
2017-Dec-14 10:00N 51°38' E 001°53'612.3
2017-Dec-14 09:30N 51°41' E 002°02'6310.5
2017-Dec-14 03:31N 52°04' E 003°37'110.9
2017-Dec-14 03:28N 52°04' E 003°38'510.7
2017-Dec-14 03:01N 52°04' E 003°46'611.5
2017-Dec-14 02:31N 52°03' E 003°55'714.9
2017-Dec-14 02:00N 51°59' E 004°06'713.9
2017-Dec-14 01:30N 51°55' E 004°15'5 9.1
2017-Dec-14 01:00N 51°52' E 004°20'4 8.8
2017-Dec-14 00:30N 51°50' E 004°27'4 8.6
2017-Dec-14 00:00N 51°49' E 004°34'4 7.2
2017-Dec-13 23:30N 51°46' E 004°38'4 8.4
2017-Dec-13 23:00N 51°42' E 004°37'1 2.7
2017-Dec-13 22:30N 51°41' E 004°36'0 0.0
2017-Dec-13 22:00N 51°41' E 004°36'0 0.0
2017-Dec-13 21:30N 51°41' E 004°36'0 0.0
2017-Dec-13 20:59N 51°41' E 004°36'0 0.0
2017-Dec-13 20:31N 51°41' E 004°36'0 0.0
2017-Dec-13 19:59N 51°41' E 004°36'0 0.0
2017-Dec-13 19:30N 51°41' E 004°36'0 0.0
2017-Dec-13 19:00N 51°41' E 004°36'0 0.0
2017-Dec-13 18:30N 51°41' E 004°36'0 0.0
2017-Dec-13 18:00N 51°41' E 004°36'0 0.0
2017-Dec-13 17:30N 51°41' E 004°36'0 0.0
2017-Dec-13 16:54N 51°41' E 004°36'0 0.0
2017-Dec-13 16:30N 51°41' E 004°36'0 0.0
2017-Dec-13 16:00N 51°41' E 004°36'0 0.0
2017-Dec-13 15:31N 51°41' E 004°36'0 0.0
2017-Dec-13 15:00N 51°41' E 004°36'0 0.0
2017-Dec-13 14:30N 51°41' E 004°36'0 0.0
2017-Dec-13 13:59N 51°41' E 004°36'0 0.0
2017-Dec-13 13:29N 51°41' E 004°36'0 0.0
2017-Dec-13 12:59N 51°41' E 004°36'0 0.0
2017-Dec-13 12:30N 51°41' E 004°36'0 0.0
2017-Dec-13 12:00N 51°41' E 004°36'0 0.0
2017-Dec-13 11:30N 51°41' E 004°36'0 0.0
2017-Dec-13 10:59N 51°41' E 004°36'0 0.0
2017-Dec-13 10:30N 51°41' E 004°36'0 0.0
2017-Dec-13 10:00N 51°41' E 004°36'3 5.1
2017-Dec-13 09:31N 51°43' E 004°37'4 8.7
2017-Dec-13 09:01N 51°48' E 004°37'4 8.4
2017-Dec-13 08:31N 51°50' E 004°32'510.0
2017-Dec-13 08:01N 51°51' E 004°23'3 6.5
2017-Dec-13 07:31N 51°53' E 004°20'5 9.2
2017-Dec-13 07:00N 51°55' E 004°14'713.5
2017-Dec-13 06:30N 51°59' E 004°04'714.3
2017-Dec-13 06:00N 51°59' E 003°53'815.3
2017-Dec-13 05:30N 51°58' E 003°41'914.2
2017-Dec-13 04:51N 51°55' E 003°26'514.1
2017-Dec-13 04:28N 51°54' E 003°18'4114.0
2017-Dec-13 01:33N 51°33' E 002°20'215.1
2017-Dec-13 01:25N 51°32' E 002°17'614.7
2017-Dec-13 01:00N 51°28' E 002°11'714.9
2017-Dec-13 00:30N 51°24' E 002°01'714.5
2017-Dec-13 00:00N 51°26' E 001°50'714.8
2017-Dec-12 23:30N 51°29' E 001°39'816.1
2017-Dec-12 23:00N 51°28' E 001°26'1017.4
2017-Dec-12 22:27N 51°29' E 001°10'1616.9
2017-Dec-12 21:29N 51°27' E 000°44'2 4.7
2017-Dec-12 21:00N 51°26' E 000°41'0 0.0
2017-Dec-12 20:30N 51°26' E 000°41'0 0.0
2017-Dec-12 20:00N 51°26' E 000°41'0 0.0
2017-Dec-12 19:30N 51°26' E 000°41'0 0.0
2017-Dec-12 19:00N 51°26' E 000°41'0 0.0
2017-Dec-12 18:27N 51°26' E 000°41'0 0.0
2017-Dec-12 18:00N 51°26' E 000°41'0 0.0
2017-Dec-12 17:30N 51°26' E 000°41'0 0.0
2017-Dec-12 17:00N 51°26' E 000°41'0 0.0
2017-Dec-12 16:27N 51°26' E 000°41'0 0.0
2017-Dec-12 16:00N 51°26' E 000°41'0 0.0
2017-Dec-12 15:30N 51°26' E 000°41'0 0.0
2017-Dec-12 14:57N 51°26' E 000°41'0 0.1
2017-Dec-12 14:30N 51°26' E 000°41'0 0.0
2017-Dec-12 14:00N 51°26' E 000°41'0 0.0
2017-Dec-12 13:21N 51°26' E 000°41'0 0.0
2017-Dec-12 13:00N 51°26' E 000°41'0 0.0
2017-Dec-12 12:30N 51°26' E 000°41'0 0.0
2017-Dec-12 12:00N 51°26' E 000°41'0 0.0
2017-Dec-12 11:30N 51°26' E 000°41'0 0.0
2017-Dec-12 11:00N 51°26' E 000°41'4 7.2
2017-Dec-12 10:30N 51°28' E 000°46'612.7
2017-Dec-12 10:00N 51°29' E 000°56'712.8
2017-Dec-12 09:29N 51°30' E 001°07'613.3
2017-Dec-12 09:00N 51°29' E 001°17'713.6
2017-Dec-12 08:31N 51°29' E 001°28'712.9
2017-Dec-12 08:00N 51°32' E 001°38'713.0
2017-Dec-12 07:30N 51°35' E 001°47'612.8
2017-Dec-12 07:00N 51°39' E 001°55'712.9
2017-Dec-12 06:30N 51°42' E 002°04'4513.2
2017-Dec-12 03:05N 52°02' E 003°09'113.2
2017-Dec-12 02:59N 52°02' E 003°12'613.7
2017-Dec-12 02:30N 52°02' E 003°22'713.4
2017-Dec-12 02:00N 52°03' E 003°33'613.1
2017-Dec-12 01:30N 52°03' E 003°44'713.4
2017-Dec-12 01:00N 52°02' E 003°54'713.8
2017-Dec-12 00:30N 51°59' E 004°04'714.2
2017-Dec-12 00:00N 51°55' E 004°14'510.6
2017-Dec-11 23:30N 51°52' E 004°20'4 8.8
2017-Dec-11 23:00N 51°50' E 004°27'4 8.6
2017-Dec-11 22:30N 51°49' E 004°34'4 7.4
2017-Dec-11 22:00N 51°46' E 004°38'4 8.2
2017-Dec-11 21:30N 51°42' E 004°36'1 2.5
2017-Dec-11 21:00N 51°41' E 004°36'0 0.0
2017-Dec-11 20:30N 51°41' E 004°36'0 0.0
2017-Dec-11 20:00N 51°41' E 004°36'0 0.0
2017-Dec-11 19:27N 51°41' E 004°36'0 0.0
2017-Dec-11 19:00N 51°41' E 004°36'0 0.0
2017-Dec-11 18:30N 51°41' E 004°36'0 0.0
2017-Dec-11 18:00N 51°41' E 004°36'0 0.0
2017-Dec-11 17:30N 51°41' E 004°36'0 0.0
2017-Dec-11 17:00N 51°41' E 004°36'0 0.0
2017-Dec-11 16:30N 51°41' E 004°36'0 0.0
2017-Dec-11 15:51N 51°41' E 004°36'0 0.0
2017-Dec-11 15:24N 51°41' E 004°36'0 0.0
2017-Dec-11 15:00N 51°41' E 004°36'0 0.0
2017-Dec-11 14:21N 51°41' E 004°36'0 0.0
2017-Dec-11 13:57N 51°41' E 004°36'0 0.0
2017-Dec-11 13:30N 51°41' E 004°36'0 0.0
2017-Dec-11 12:54N 51°41' E 004°36'0 0.0
2017-Dec-11 12:30N 51°41' E 004°36'0 0.0
2017-Dec-11 12:00N 51°41' E 004°36'0 0.0
2017-Dec-11 11:30N 51°41' E 004°36'0 0.0
2017-Dec-11 11:00N 51°41' E 004°36'0 0.0
2017-Dec-11 10:27N 51°41' E 004°36'0 0.0
2017-Dec-11 10:00N 51°41' E 004°36'0 0.0
2017-Dec-11 09:30N 51°41' E 004°36'0 0.0
2017-Dec-11 09:00N 51°41' E 004°36'0 0.0
2017-Dec-11 08:30N 51°41' E 004°36'0 0.0
2017-Dec-11 08:00N 51°41' E 004°36'0 0.0
2017-Dec-11 07:30N 51°41' E 004°36'0 0.0
2017-Dec-11 07:00N 51°41' E 004°36'0 0.0
2017-Dec-11 06:30N 51°41' E 004°36'0 0.0
2017-Dec-11 06:00N 51°41' E 004°36'0 0.2
2017-Dec-11 05:31N 51°41' E 004°36'4 7.4
2017-Dec-11 05:01N 51°45' E 004°38'4 8.1
2017-Dec-11 04:30N 51°48' E 004°36'4 8.7
2017-Dec-11 04:01N 51°50' E 004°29'5 9.1
2017-Dec-11 03:31N 51°51' E 004°22'5 9.3
2017-Dec-11 03:01N 51°54' E 004°17'611.9
2017-Dec-11 02:31N 51°58' E 004°09'612.7
2017-Dec-11 02:00N 51°60' E 003°59'714.0
2017-Dec-11 01:30N 51°58' E 003°48'814.4
2017-Dec-11 00:58N 51°57' E 003°36'612.2
2017-Dec-11 00:28N 51°55' E 003°26'612.4
2017-Dec-11 00:00N 51°53' E 003°17'3912.9
2017-Dec-10 20:57N 51°35' E 002°22'614.0
2017-Dec-10 20:30N 51°30' E 002°14'714.4
2017-Dec-10 20:00N 51°25' E 002°06'713.3
2017-Dec-10 19:30N 51°25' E 001°56'714.5
2017-Dec-10 19:00N 51°28' E 001°45'714.2
2017-Dec-10 18:30N 51°29' E 001°33'714.7
2017-Dec-10 18:00N 51°28' E 001°22'6 0.4
2017-Dec-10 04:17N 51°29' E 001°13'310.9
2017-Dec-10 04:00N 51°29' E 001°18'611.1
2017-Dec-10 03:30N 51°29' E 001°27'613.0
2017-Dec-10 03:00N 51°31' E 001°36'713.7
2017-Dec-10 02:30N 51°35' E 001°46'713.6
2017-Dec-10 02:00N 51°38' E 001°55'713.7
2017-Dec-10 01:31N 51°42' E 002°04'6013.2
2017-Dec-09 20:59N 52°04' E 003°34'612.6
2017-Dec-09 20:30N 52°04' E 003°44'612.1
2017-Dec-09 20:00N 52°03' E 003°54'612.3
2017-Dec-09 19:30N 51°60' E 004°02'713.0
2017-Dec-09 19:00N 51°57' E 004°12'611.8
2017-Dec-09 18:30N 51°53' E 004°19'5 9.2
2017-Dec-09 18:01N 51°50' E 004°25'510.5
2017-Dec-09 17:30N 51°49' E 004°34'5 9.0
2017-Dec-09 17:00N 51°45' E 004°38'4 8.0
2017-Dec-09 16:30N 51°42' E 004°35'1 1.3
2017-Dec-09 16:00N 51°41' E 004°36'0 0.0
2017-Dec-09 15:30N 51°41' E 004°36'0 0.0
2017-Dec-09 14:57N 51°41' E 004°36'0 0.0
2017-Dec-09 14:27N 51°41' E 004°36'0 0.0
2017-Dec-09 14:00N 51°41' E 004°36'0 0.0
2017-Dec-09 13:30N 51°41' E 004°36'0 0.0
2017-Dec-09 12:57N 51°41' E 004°36'0 0.0
2017-Dec-09 12:30N 51°41' E 004°36'0 0.0
2017-Dec-09 12:00N 51°41' E 004°36'0 0.0
2017-Dec-09 11:30N 51°41' E 004°36'0 0.0
2017-Dec-09 11:00N 51°41' E 004°36'0 0.0
2017-Dec-09 10:30N 51°41' E 004°36'0 0.0
2017-Dec-09 10:00N 51°41' E 004°36'0 0.0
2017-Dec-09 09:30N 51°41' E 004°36'0 0.0
2017-Dec-09 08:54N 51°41' E 004°36'0 0.0
2017-Dec-09 08:30N 51°41' E 004°36'0 0.0
2017-Dec-09 08:00N 51°41' E 004°36'0 0.0
2017-Dec-09 07:30N 51°41' E 004°36'0 0.0
2017-Dec-09 07:00N 51°41' E 004°36'0 0.4
2017-Dec-09 06:29N 51°41' E 004°36'0 0.0
2017-Dec-09 05:59N 51°41' E 004°36'0 0.0
2017-Dec-09 05:29N 51°41' E 004°36'0 0.0
2017-Dec-09 04:59N 51°41' E 004°36'0 0.0
2017-Dec-09 04:29N 51°41' E 004°36'0 0.0
2017-Dec-09 03:59N 51°41' E 004°36'0 0.0
2017-Dec-09 03:29N 51°41' E 004°36'0 0.0
2017-Dec-09 02:56N 51°41' E 004°36'0 0.0
2017-Dec-09 02:26N 51°41' E 004°36'0 0.0
2017-Dec-09 01:59N 51°41' E 004°36'0 0.0
2017-Dec-09 01:29N 51°41' E 004°36'0 0.0
2017-Dec-09 00:59N 51°41' E 004°36'0 0.0
2017-Dec-09 00:29N 51°41' E 004°36'0 0.0
2017-Dec-08 23:59N 51°41' E 004°36'0 0.0
2017-Dec-08 23:26N 51°41' E 004°36'0 0.0
2017-Dec-08 22:59N 51°41' E 004°36'0 0.0
2017-Dec-08 22:29N 51°41' E 004°36'0 0.0
2017-Dec-08 21:59N 51°41' E 004°36'0 0.0
2017-Dec-08 21:29N 51°41' E 004°36'0 0.0
2017-Dec-08 20:56N 51°41' E 004°36'0 0.0
2017-Dec-08 20:29N 51°41' E 004°36'0 0.0
2017-Dec-08 19:59N 51°41' E 004°36'0 0.0
2017-Dec-08 19:29N 51°41' E 004°36'0 0.0
2017-Dec-08 18:59N 51°41' E 004°36'0 0.0
2017-Dec-08 18:29N 51°41' E 004°36'0 0.0
2017-Dec-08 17:59N 51°41' E 004°36'0 0.0
2017-Dec-08 17:29N 51°41' E 004°36'0 0.0
2017-Dec-08 16:53N 51°41' E 004°36'0 0.0
2017-Dec-08 16:29N 51°41' E 004°36'0 0.2
2017-Dec-08 15:59N 51°41' E 004°36'0 0.0
2017-Dec-08 15:29N 51°41' E 004°36'0 0.0
2017-Dec-08 14:59N 51°41' E 004°36'0 0.0
2017-Dec-08 14:23N 51°41' E 004°36'0 0.0
2017-Dec-08 13:59N 51°41' E 004°36'0 0.0
2017-Dec-08 13:29N 51°41' E 004°36'0 0.0
2017-Dec-08 12:56N 51°41' E 004°36'0 0.0
2017-Dec-08 12:29N 51°41' E 004°36'0 0.0
2017-Dec-08 11:59N 51°41' E 004°36'0 0.0
2017-Dec-08 11:29N 51°41' E 004°36'0 0.0
2017-Dec-08 10:59N 51°41' E 004°36'1 2.1
2017-Dec-08 10:31N 51°42' E 004°36'5 9.7
2017-Dec-08 10:00N 51°47' E 004°38'5 9.1
2017-Dec-08 09:31N 51°50' E 004°33'510.8
2017-Dec-08 09:00N 51°51' E 004°24'5 9.9
2017-Dec-08 08:30N 51°54' E 004°18'714.2
2017-Dec-08 08:00N 51°58' E 004°09'612.8
2017-Dec-08 07:31N 51°60' E 003°59'917.8
2017-Dec-08 07:00N 51°58' E 003°44'4617.0
2017-Dec-08 04:16N 51°42' E 002°34'617.8
2017-Dec-08 03:56N 51°39' E 002°26'916.9
2017-Dec-08 03:24N 51°32' E 002°16'716.7
2017-Dec-08 03:00N 51°27' E 002°10'816.5
2017-Dec-08 02:30N 51°24' E 001°58'917.1
2017-Dec-08 02:00N 51°27' E 001°45'816.0
2017-Dec-08 01:30N 51°29' E 001°32'815.5
2017-Dec-08 01:00N 51°29' E 001°20'815.3
2017-Dec-08 00:30N 51°29' E 001°08'815.0
2017-Dec-08 00:00N 51°29' E 000°55'714.2
2017-Dec-07 23:31N 51°27' E 000°45'2 4.8
2017-Dec-07 23:00N 51°26' E 000°41'0 0.0
2017-Dec-07 22:29N 51°26' E 000°41'0 0.0
2017-Dec-07 21:59N 51°26' E 000°41'0 0.0
2017-Dec-07 21:29N 51°26' E 000°41'0 0.0
2017-Dec-07 20:59N 51°26' E 000°41'0 0.0
2017-Dec-07 20:19N 51°26' E 000°41'0 0.0
2017-Dec-07 19:55N 51°26' E 000°41'0 0.0
2017-Dec-07 19:29N 51°26' E 000°41'0 0.0
2017-Dec-07 18:55N 51°26' E 000°41'0 0.0
2017-Dec-07 18:25N 51°26' E 000°41'0 0.0
2017-Dec-07 17:55N 51°26' E 000°41'0 0.0
2017-Dec-07 17:29N 51°26' E 000°41'0 0.0
2017-Dec-07 16:59N 51°26' E 000°41'0 0.0
2017-Dec-07 16:29N 51°26' E 000°41'0 0.0
2017-Dec-07 15:50N 51°26' E 000°41'0 0.0
2017-Dec-07 15:29N 51°26' E 000°41'0 0.0
2017-Dec-07 14:59N 51°26' E 000°41'0 0.0
2017-Dec-07 14:29N 51°26' E 000°41'0 0.0
2017-Dec-07 13:59N 51°26' E 000°41'0 0.0
2017-Dec-07 13:29N 51°26' E 000°41'1 3.1
2017-Dec-07 13:01N 51°26' E 000°43'816.0
2017-Dec-07 12:30N 51°29' E 000°55'917.6
2017-Dec-07 12:00N 51°29' E 001°09'915.1
2017-Dec-07 11:23N 51°29' E 001°24'514.6
2017-Dec-07 11:00N 51°30' E 001°33'714.7
2017-Dec-07 10:31N 51°34' E 001°43'713.4
2017-Dec-07 10:00N 51°38' E 001°52'612.6
2017-Dec-07 09:30N 51°42' E 001°60'63 8.8
2017-Dec-07 02:22N 52°04' E 003°35'410.6
2017-Dec-07 02:00N 52°03' E 003°41'611.6
2017-Dec-07 01:30N 52°03' E 003°50'713.4
2017-Dec-07 01:00N 52°00' E 004°00'714.9
2017-Dec-07 00:31N 51°57' E 004°11'713.6
2017-Dec-07 00:01N 51°52' E 004°20'5 9.9
2017-Dec-06 23:31N 51°50' E 004°27'5 9.7
2017-Dec-06 23:00N 51°49' E 004°34'4 8.4
2017-Dec-06 22:31N 51°45' E 004°38'  

Dump ship's entire track history